Terminal Aerodrome Forecast
Issued by NWS

Home | Current Version | Previous Version | Text Only | Print | Product List | Glossary On
Versions: 1 2 3 4 5 6 7 8 9 10 11 12 13
475
FTPA31 PHFO 132333
TAFHTO
TAF
PHTO 132333Z 1400/1424 12010KT P6SM SCT030 SCT050
     FM140600 23004KT P6SM VCSH SCT025 BKN045
     FM142100 10010KT P6SM SCT030 SCT050=

USA.gov is the U.S. government's official web portal to all federal, state and local government web resources and services.